createdAt,value
2023-03-29T00:02:20.076Z,6.93
2023-03-29T00:04:47.301Z,5.15
2023-03-29T00:07:14.688Z,4.88
2023-03-29T00:09:42.559Z,5.15
2023-03-29T00:12:11.694Z,7.35
2023-03-29T00:14:38.734Z,9.30
2023-03-29T00:17:06.536Z,6.97
2023-03-29T00:19:36.645Z,5.65
2023-03-29T00:22:07.634Z,5.55
2023-03-29T00:24:34.882Z,6.63
2023-03-29T00:27:02.188Z,5.93
2023-03-29T00:29:29.352Z,6.40
2023-03-29T00:31:57.392Z,4.40
2023-03-29T00:34:26.380Z,6.68
2023-03-29T00:36:58.104Z,5.13
2023-03-29T00:39:26.569Z,7.13
2023-03-29T00:41:57.009Z,9.02
2023-03-29T00:44:55.101Z,6.03
2023-03-29T00:47:28.810Z,6.43
2023-03-29T00:50:01.758Z,6.50
2023-03-29T00:52:32.119Z,7.00
2023-03-29T00:55:03.624Z,6.35
2023-03-29T00:57:33.274Z,7.65
2023-03-29T01:00:04.953Z,8.05
2023-03-29T01:02:35.078Z,6.88
2023-03-29T01:05:10.806Z,6.78
2023-03-29T01:07:48.205Z,6.07
2023-03-29T01:10:25.115Z,5.97
2023-03-29T01:12:59.373Z,5.78
2023-03-29T01:15:28.226Z,5.13
2023-03-29T01:17:58.230Z,5.90
2023-03-29T01:20:31.154Z,9.48
2023-03-29T01:23:15.928Z,5.90
2023-03-29T01:26:12.965Z,5.78
2023-03-29T01:28:52.984Z,7.80
2023-03-29T01:31:34.352Z,6.30
2023-03-29T01:34:09.923Z,4.53
2023-03-29T01:36:49.632Z,5.63
2023-03-29T01:39:18.257Z,5.80
2023-03-29T01:42:14.813Z,8.77
2023-03-29T01:45:10.955Z,6.53
2023-03-29T01:47:49.458Z,5.13
2023-03-29T01:50:44.610Z,6.30
2023-03-29T01:53:24.758Z,7.93
2023-03-29T01:55:55.561Z,6.07
2023-03-29T01:58:33.697Z,7.50
2023-03-29T02:01:05.838Z,5.78
2023-03-29T02:03:34.815Z,7.90
2023-03-29T02:06:04.937Z,12.00
2023-03-29T02:08:32.198Z,8.07
2023-03-29T02:10:59.642Z,9.30
2023-03-29T02:13:27.339Z,6.93
2023-03-29T02:15:54.892Z,8.82
2023-03-29T02:18:22.178Z,6.82
2023-03-29T02:20:51.680Z,7.93
2023-03-29T02:23:27.365Z,8.35
2023-03-29T02:25:56.983Z,8.45
2023-03-29T02:28:27.131Z,8.43
2023-03-29T02:31:07.988Z,7.75
2023-03-29T02:34:01.321Z,5.57
2023-03-29T02:37:03.826Z,5.60
2023-03-29T02:39:33.738Z,7.28
2023-03-29T02:42:03.045Z,8.50
2023-03-29T02:44:33.216Z,7.38
2023-03-29T02:47:07.822Z,12.65
2023-03-29T02:49:35.065Z,6.78
2023-03-29T02:52:11.675Z,5.95
2023-03-29T02:54:43.177Z,5.20
2023-03-29T02:57:11.289Z,7.13
2023-03-29T02:59:44.081Z,8.10
2023-03-29T03:02:11.860Z,6.65
2023-03-29T03:04:39.947Z,8.20
2023-03-29T03:07:07.463Z,8.93
2023-03-29T03:09:35.506Z,9.50
2023-03-29T03:12:03.066Z,9.05
2023-03-29T03:14:30.419Z,9.35
2023-03-29T03:17:00.699Z,9.15
2023-03-29T03:19:29.674Z,10.02
2023-03-29T03:21:57.087Z,9.45
2023-03-29T03:24:24.154Z,9.35
2023-03-29T03:26:51.492Z,11.23
2023-03-29T03:29:19.678Z,8.85
2023-03-29T03:32:24.474Z,8.95
2023-03-29T03:35:18.085Z,8.70
2023-03-29T03:37:46.341Z,11.05
2023-03-29T03:40:13.773Z,8.90
2023-03-29T03:42:41.897Z,9.70
2023-03-29T03:45:10.729Z,8.05
2023-03-29T03:50:59.097Z,8.00
2023-03-29T03:53:32.311Z,10.15
2023-03-29T03:56:15.199Z,11.10
2023-03-29T03:59:07.311Z,11.73
2023-03-29T04:02:03.765Z,9.63
2023-03-29T04:04:32.764Z,11.85
2023-03-29T04:07:17.959Z,13.25
2023-03-29T04:09:57.476Z,11.48
2023-03-29T04:12:43.051Z,9.38
2023-03-29T04:15:12.187Z,7.95
2023-03-29T04:17:44.991Z,11.48
2023-03-29T04:20:24.749Z,8.23
2023-03-29T04:22:52.233Z,9.52
2023-03-29T04:25:21.547Z,10.02
2023-03-29T04:27:50.958Z,10.60
2023-03-29T04:30:38.794Z,10.45
2023-03-29T04:33:12.193Z,8.85
2023-03-29T04:35:42.736Z,10.43
2023-03-29T04:38:14.857Z,10.65
2023-03-29T04:40:44.235Z,10.48
2023-03-29T04:43:31.694Z,10.93
2023-03-29T04:46:10.955Z,11.10
2023-03-29T04:48:58.765Z,10.13
2023-03-29T04:51:47.701Z,10.27
2023-03-29T04:54:17.560Z,9.63
2023-03-29T04:57:07.757Z,13.07
2023-03-29T04:59:41.426Z,11.68
2023-03-29T05:02:20.007Z,10.68
2023-03-29T05:04:50.442Z,10.52
2023-03-29T05:07:19.581Z,10.63
2023-03-29T05:09:47.601Z,8.85
2023-03-29T05:12:15.410Z,12.50
2023-03-29T05:15:00.453Z,8.95
2023-03-29T05:17:29.924Z,13.32
2023-03-29T05:20:13.199Z,13.47
2023-03-29T05:22:43.563Z,11.38
2023-03-29T05:25:17.454Z,9.35
2023-03-29T05:27:46.009Z,15.52
2023-03-29T05:30:15.328Z,11.38
2023-03-29T05:32:52.871Z,14.73
2023-03-29T05:35:26.225Z,12.15
2023-03-29T05:37:56.322Z,9.35
2023-03-29T05:40:26.214Z,12.98
2023-03-29T05:43:12.608Z,9.13
2023-03-29T05:45:39.704Z,10.82
2023-03-29T05:48:07.196Z,13.55
2023-03-29T05:50:36.862Z,16.73
2023-03-29T05:53:05.463Z,8.18
2023-03-29T05:55:33.595Z,9.73
2023-03-29T05:58:01.150Z,12.88
2023-03-29T06:00:34.302Z,9.38
2023-03-29T06:03:21.510Z,10.60
2023-03-29T06:05:56.742Z,11.27
2023-03-29T06:08:24.484Z,9.20
2023-03-29T06:11:17.646Z,14.32
2023-03-29T06:14:04.613Z,8.00
2023-03-29T06:16:33.389Z,11.40
2023-03-29T06:19:01.721Z,10.80
2023-03-29T06:21:31.593Z,9.98
2023-03-29T06:23:59.659Z,14.27
2023-03-29T06:26:30.193Z,9.45
2023-03-29T06:28:58.274Z,8.23
2023-03-29T06:31:25.894Z,8.82
2023-03-29T06:33:53.581Z,9.15
2023-03-29T06:36:46.936Z,10.50
2023-03-29T06:39:15.632Z,7.32
2023-03-29T06:42:20.063Z,10.48
2023-03-29T06:45:07.741Z,10.70
2023-03-29T06:47:38.850Z,9.10
2023-03-29T06:50:07.124Z,10.23
2023-03-29T06:52:45.192Z,9.55
2023-03-29T06:55:14.327Z,12.35
2023-03-29T06:57:42.617Z,9.82
2023-03-29T07:00:19.220Z,7.40
2023-03-29T07:03:09.904Z,8.90
2023-03-29T07:05:40.804Z,9.10
2023-03-29T07:08:09.933Z,13.48
2023-03-29T07:11:14.270Z,7.88
2023-03-29T07:13:52.312Z,12.57
2023-03-29T07:16:21.419Z,9.98
2023-03-29T07:19:09.242Z,7.83
2023-03-29T07:22:04.631Z,9.35
2023-03-29T07:24:41.844Z,8.25
2023-03-29T07:27:09.788Z,8.02
2023-03-29T07:29:37.212Z,11.40
2023-03-29T07:32:04.823Z,8.40
2023-03-29T07:34:51.528Z,8.70
2023-03-29T07:37:27.513Z,9.50
2023-03-29T07:39:56.767Z,10.40
2023-03-29T07:42:39.703Z,6.72
2023-03-29T07:45:11.376Z,7.70
2023-03-29T07:47:56.109Z,6.65
2023-03-29T07:50:23.563Z,8.38
2023-03-29T07:52:54.279Z,5.50
2023-03-29T07:55:22.165Z,6.65
2023-03-29T07:57:56.365Z,7.80
2023-03-29T08:00:25.006Z,4.47
2023-03-29T08:03:16.137Z,8.35
2023-03-29T08:05:43.672Z,9.45
2023-03-29T08:08:14.267Z,6.18
2023-03-29T08:11:04.591Z,7.55
2023-03-29T08:13:44.238Z,8.50
2023-03-29T08:16:26.689Z,5.53
2023-03-29T08:19:05.234Z,7.82
2023-03-29T08:22:01.620Z,5.20
2023-03-29T08:24:38.095Z,5.15
2023-03-29T08:27:07.479Z,4.45
2023-03-29T08:29:35.401Z,6.00
2023-03-29T08:32:02.922Z,6.20
2023-03-29T08:34:31.785Z,5.95
2023-03-29T08:37:05.114Z,6.32
2023-03-29T08:39:41.248Z,4.05
2023-03-29T08:42:34.385Z,5.55
2023-03-29T08:45:39.410Z,6.63
2023-03-29T08:48:20.880Z,4.53
2023-03-29T08:50:54.618Z,5.80
2023-03-29T08:53:32.819Z,9.90
2023-03-29T08:56:23.075Z,4.82
2023-03-29T08:58:52.360Z,4.63
2023-03-29T09:01:22.729Z,4.22
2023-03-29T09:04:06.476Z,3.03
2023-03-29T09:06:48.984Z,4.43
2023-03-29T09:09:27.847Z,4.60
2023-03-29T09:12:23.831Z,3.85
2023-03-29T09:14:52.387Z,3.33
2023-03-29T09:17:55.685Z,4.68
2023-03-29T09:21:00.844Z,4.55
2023-03-29T09:23:57.037Z,2.83
2023-03-29T09:26:47.725Z,5.78
2023-03-29T09:29:49.257Z,4.40
2023-03-29T09:32:31.374Z,4.88
2023-03-29T09:35:23.150Z,3.65
2023-03-29T09:37:54.115Z,3.33
2023-03-29T09:40:34.215Z,4.75
2023-03-29T09:43:15.008Z,2.90
2023-03-29T09:45:43.775Z,3.58
2023-03-29T09:48:16.882Z,4.40
2023-03-29T09:50:51.481Z,5.82
2023-03-29T09:53:21.521Z,3.00
2023-03-29T09:56:02.716Z,3.38
2023-03-29T09:58:50.266Z,3.90
2023-03-29T10:01:19.834Z,9.20
2023-03-29T10:03:53.933Z,4.15
2023-03-29T10:06:25.655Z,4.55
2023-03-29T10:08:59.726Z,5.65
2023-03-29T10:11:37.072Z,3.90
2023-03-29T10:14:13.899Z,4.03
2023-03-29T10:16:46.633Z,5.10
2023-03-29T10:19:34.371Z,5.97
2023-03-29T10:22:07.755Z,4.07
2023-03-29T10:24:34.978Z,4.97
2023-03-29T10:27:09.770Z,3.63
2023-03-29T10:29:41.176Z,5.30
2023-03-29T10:32:35.685Z,3.97
2023-03-29T10:35:24.982Z,5.25
2023-03-29T10:37:55.771Z,6.47
2023-03-29T10:40:41.405Z,4.60
2023-03-29T10:43:41.894Z,4.10
2023-03-29T10:46:19.803Z,5.28
2023-03-29T10:48:50.257Z,7.82
2023-03-29T10:51:19.223Z,6.32
2023-03-29T10:53:47.657Z,4.63
2023-03-29T10:56:24.483Z,5.70
2023-03-29T10:59:17.290Z,4.85
2023-03-29T11:02:18.923Z,4.20
2023-03-29T11:05:00.291Z,5.68
2023-03-29T11:08:16.223Z,4.97
2023-03-29T11:11:10.527Z,4.30
2023-03-29T11:14:04.886Z,5.32
2023-03-29T11:16:37.055Z,5.32
2023-03-29T11:19:18.754Z,5.43
2023-03-29T11:21:46.019Z,8.63
2023-03-29T11:24:36.450Z,5.45
2023-03-29T11:27:03.911Z,5.07
2023-03-29T11:30:25.169Z,4.43
2023-03-29T11:33:02.854Z,5.03
2023-03-29T11:35:54.132Z,3.30
2023-03-29T11:38:33.594Z,4.40
2023-03-29T11:41:18.791Z,4.85
2023-03-29T11:44:20.393Z,4.90
2023-03-29T11:47:03.747Z,4.85
2023-03-29T11:49:43.858Z,6.00
2023-03-29T11:52:17.605Z,5.18
2023-03-29T11:55:19.304Z,4.05
2023-03-29T11:58:05.888Z,4.40
2023-03-29T12:00:52.803Z,4.53
2023-03-29T12:03:43.112Z,4.70
2023-03-29T12:06:17.865Z,4.38
2023-03-29T12:08:52.678Z,5.72
2023-03-29T12:11:43.181Z,5.72
2023-03-29T12:14:18.041Z,3.63
2023-03-29T12:16:52.238Z,8.15
2023-03-29T12:19:41.792Z,3.47
2023-03-29T12:22:11.407Z,4.55
2023-03-29T12:24:46.323Z,5.78
2023-03-29T12:27:34.195Z,5.18
2023-03-29T12:30:28.383Z,9.27
2023-03-29T12:33:13.684Z,4.60
2023-03-29T12:36:16.527Z,7.65
2023-03-29T12:39:03.652Z,6.40
2023-03-29T12:41:51.763Z,6.18
2023-03-29T12:44:37.518Z,4.35
2023-03-29T12:47:42.491Z,4.03
2023-03-29T12:50:25.560Z,8.38
2023-03-29T12:52:53.144Z,6.95
2023-03-29T12:55:42.926Z,5.03
2023-03-29T12:58:24.814Z,9.93
2023-03-29T13:01:22.485Z,5.60
2023-03-29T13:03:52.728Z,6.85
2023-03-29T13:06:56.400Z,6.05
2023-03-29T13:09:25.259Z,6.15
2023-03-29T13:11:54.775Z,5.85
2023-03-29T13:14:26.344Z,6.85
2023-03-29T13:16:54.168Z,4.88
2023-03-29T13:19:50.699Z,6.18
2023-03-29T13:22:26.312Z,5.10
2023-03-29T13:25:10.618Z,4.45
2023-03-29T13:28:01.308Z,4.38
2023-03-29T13:30:47.059Z,4.47
2023-03-29T13:33:37.093Z,7.00
2023-03-29T13:36:29.350Z,4.22
2023-03-29T13:39:05.532Z,5.03
2023-03-29T13:41:44.512Z,5.13
2023-03-29T13:44:26.064Z,5.90
2023-03-29T13:47:05.328Z,4.68
2023-03-29T13:49:34.500Z,5.63
2023-03-29T13:52:26.432Z,4.75
2023-03-29T13:55:03.110Z,4.63
2023-03-29T13:57:42.397Z,7.07
2023-03-29T14:00:18.221Z,5.00
2023-03-29T14:03:05.296Z,5.90
2023-03-29T14:05:39.853Z,6.03
2023-03-29T14:08:37.429Z,3.50
2023-03-29T14:11:07.027Z,5.35
2023-03-29T14:13:34.955Z,6.95
2023-03-29T14:16:05.247Z,4.68
2023-03-29T14:18:36.763Z,5.47
2023-03-29T14:21:04.403Z,8.10
2023-03-29T14:23:37.446Z,4.72
2023-03-29T14:26:17.362Z,4.97
2023-03-29T14:28:48.421Z,4.20
2023-03-29T14:31:23.765Z,5.22
2023-03-29T14:33:56.058Z,4.35
2023-03-29T14:36:25.163Z,5.75
2023-03-29T14:39:05.415Z,5.03
2023-03-29T14:41:36.756Z,6.60
2023-03-29T14:44:06.737Z,5.65
2023-03-29T14:46:35.416Z,5.13
2023-03-29T14:49:02.836Z,8.25
2023-03-29T14:51:31.214Z,5.72
2023-03-29T14:54:00.302Z,13.15
2023-03-29T14:56:29.138Z,10.82
2023-03-29T14:58:57.436Z,5.70
2023-03-29T15:01:26.829Z,5.55
2023-03-29T15:04:07.511Z,6.35
2023-03-29T15:06:42.470Z,6.53
2023-03-29T15:09:21.211Z,5.82
2023-03-29T15:11:53.979Z,6.95
2023-03-29T15:14:23.545Z,9.00
2023-03-29T15:16:53.406Z,7.07
2023-03-29T15:19:22.597Z,8.65
2023-03-29T15:21:51.480Z,7.03
2023-03-29T15:24:33.028Z,6.90
2023-03-29T15:27:18.174Z,10.25
2023-03-29T15:29:47.367Z,9.35
2023-03-29T15:32:23.508Z,6.43
2023-03-29T15:35:01.518Z,12.60
2023-03-29T15:37:29.098Z,9.32
2023-03-29T15:39:56.768Z,8.27
2023-03-29T15:42:25.098Z,5.40
2023-03-29T15:44:56.330Z,6.93
2023-03-29T15:47:24.090Z,8.68
2023-03-29T15:49:51.671Z,7.60
2023-03-29T15:52:19.037Z,9.55
2023-03-29T15:54:46.307Z,7.03
2023-03-29T15:57:15.692Z,14.05
2023-03-29T15:59:43.867Z,10.43
2023-03-29T16:02:16.283Z,7.35
2023-03-29T16:04:43.640Z,7.45
2023-03-29T16:07:14.966Z,7.13
2023-03-29T16:09:42.732Z,8.02
2023-03-29T16:12:11.057Z,15.23
2023-03-29T16:14:38.637Z,8.73
2023-03-29T16:17:06.681Z,8.35
2023-03-29T16:19:34.456Z,10.65
2023-03-29T16:22:07.056Z,13.38
2023-03-29T16:24:35.572Z,14.60
2023-03-29T16:27:03.801Z,12.55
2023-03-29T16:29:31.197Z,7.55
2023-03-29T16:31:59.201Z,15.77
2023-03-29T16:34:26.824Z,11.57
2023-03-29T16:36:54.453Z,11.98
2023-03-29T16:39:21.576Z,17.63
2023-03-29T16:41:50.281Z,18.17
2023-03-29T16:44:22.456Z,21.95
2023-03-29T16:46:54.210Z,13.75
2023-03-29T16:49:21.700Z,20.05
2023-03-29T16:51:49.156Z,14.85
2023-03-29T16:54:19.709Z,23.73
2023-03-29T16:56:47.342Z,14.85
2023-03-29T16:59:15.353Z,12.77
2023-03-29T17:01:43.109Z,16.58
2023-03-29T17:04:10.577Z,22.15
2023-03-29T17:06:38.051Z,29.30
2023-03-29T17:09:06.069Z,35.95
2023-03-29T17:11:34.531Z,46.53
2023-03-29T17:14:01.789Z,50.80
2023-03-29T17:16:29.464Z,67.70
2023-03-29T17:19:00.507Z,54.67
2023-03-29T17:21:29.300Z,44.70
2023-03-29T17:24:00.350Z,28.02
2023-03-29T17:26:28.509Z,29.15
2023-03-29T17:28:55.720Z,20.70
2023-03-29T17:31:23.185Z,23.20
2023-03-29T17:33:52.096Z,17.05
2023-03-29T17:36:24.009Z,18.13
2023-03-29T17:38:51.643Z,22.25
2023-03-29T17:41:19.283Z,19.27
2023-03-29T17:43:47.849Z,18.48
2023-03-29T17:46:16.977Z,20.60
2023-03-29T17:48:43.990Z,21.02
2023-03-29T17:51:11.321Z,20.10
2023-03-29T17:53:38.337Z,22.10
2023-03-29T17:56:06.580Z,26.75
2023-03-29T17:58:33.598Z,23.80
2023-03-29T18:01:08.333Z,20.80
2023-03-29T18:03:35.630Z,22.73
2023-03-29T18:06:03.953Z,22.73
2023-03-29T18:08:32.658Z,23.25
2023-03-29T18:11:11.832Z,24.35
2023-03-29T18:13:39.920Z,27.35
2023-03-29T18:16:09.453Z,26.13
2023-03-29T18:18:37.472Z,26.13
2023-03-29T18:21:06.940Z,36.42
2023-03-29T18:23:34.170Z,49.53
2023-03-29T18:26:03.579Z,39.55
2023-03-29T18:28:31.201Z,28.10
2023-03-29T18:30:58.644Z,25.35
2023-03-29T18:33:26.026Z,22.65
2023-03-29T18:35:53.489Z,20.88
2023-03-29T18:38:22.584Z,18.88
2023-03-29T18:40:50.307Z,17.80
2023-03-29T18:43:17.891Z,22.83
2023-03-29T18:45:45.451Z,28.05
2023-03-29T18:48:13.027Z,34.92
2023-03-29T18:50:45.058Z,33.13
2023-03-29T18:53:15.981Z,29.63
2023-03-29T18:55:43.949Z,35.75
2023-03-29T18:58:12.585Z,29.58
2023-03-29T19:00:41.163Z,29.90
2023-03-29T19:03:08.857Z,21.73
2023-03-29T19:05:39.970Z,25.90
2023-03-29T19:08:09.148Z,21.75
2023-03-29T19:10:37.750Z,22.20
2023-03-29T19:13:05.609Z,21.55
2023-03-29T19:15:34.654Z,22.67
2023-03-29T19:18:02.045Z,22.77
2023-03-29T19:20:29.967Z,27.25
2023-03-29T19:22:56.998Z,24.70
2023-03-29T19:25:24.510Z,23.08
2023-03-29T19:27:51.583Z,26.70
2023-03-29T19:30:23.170Z,27.65
2023-03-29T19:32:51.545Z,33.35
2023-03-29T19:35:20.101Z,27.77
2023-03-29T19:37:47.217Z,28.17
2023-03-29T19:40:15.354Z,30.70
2023-03-29T19:42:42.996Z,32.75
2023-03-29T19:45:10.777Z,32.33
2023-03-29T19:47:37.866Z,36.10
2023-03-29T19:50:06.179Z,33.67
2023-03-29T19:52:33.951Z,34.22
2023-03-29T19:55:01.432Z,32.60
2023-03-29T19:57:28.630Z,34.90
2023-03-29T19:59:55.924Z,34.28
2023-03-29T20:02:23.117Z,33.63
2023-03-29T20:04:50.843Z,36.08
2023-03-29T20:07:17.833Z,38.90
2023-03-29T20:09:45.974Z,38.72
2023-03-29T20:12:13.042Z,42.30
2023-03-29T20:14:40.514Z,43.80
2023-03-29T20:17:08.046Z,46.47
2023-03-29T20:19:36.733Z,44.75
2023-03-29T20:22:04.432Z,42.30
2023-03-29T20:24:32.638Z,38.97
2023-03-29T20:26:59.884Z,42.67
2023-03-29T20:29:27.703Z,43.60
2023-03-29T20:31:54.830Z,39.90
2023-03-29T20:34:22.458Z,39.28
2023-03-29T20:36:49.830Z,34.33
2023-03-29T20:39:18.743Z,36.65
2023-03-29T20:41:47.812Z,36.38
2023-03-29T20:44:18.575Z,37.15
2023-03-29T20:46:54.297Z,33.65
2023-03-29T20:49:26.478Z,27.20
2023-03-29T20:51:58.515Z,32.45
2023-03-29T20:54:26.534Z,27.42
2023-03-29T20:56:54.881Z,27.33
2023-03-29T20:59:22.905Z,31.42
2023-03-29T21:01:50.397Z,30.90
2023-03-29T21:04:18.287Z,27.52
2023-03-29T21:06:45.738Z,31.88
2023-03-29T21:09:13.705Z,30.88
2023-03-29T21:11:40.932Z,40.45
2023-03-29T21:14:09.436Z,30.83
2023-03-29T21:16:36.566Z,31.52
2023-03-29T21:19:03.941Z,29.15
2023-03-29T21:21:30.947Z,26.42
2023-03-29T21:23:58.264Z,27.95
2023-03-29T21:26:26.108Z,25.55
2023-03-29T21:28:53.662Z,24.25
2023-03-29T21:31:21.044Z,22.88
2023-03-29T21:33:48.422Z,27.50
2023-03-29T21:36:15.438Z,25.48
2023-03-29T21:38:42.774Z,23.38
2023-03-29T21:41:12.065Z,27.55
2023-03-29T21:43:39.789Z,20.60
2023-03-29T21:46:07.385Z,24.23
2023-03-29T21:48:35.229Z,21.63
2023-03-29T21:51:02.883Z,21.48
2023-03-29T21:53:30.612Z,21.52
2023-03-29T21:55:57.739Z,24.17
2023-03-29T21:58:25.287Z,24.05
2023-03-29T22:00:52.579Z,24.17
2023-03-29T22:03:19.935Z,24.30
2023-03-29T22:06:01.325Z,23.00
2023-03-29T22:08:29.658Z,22.77
2023-03-29T22:10:57.719Z,23.55
2023-03-29T22:13:27.595Z,23.08
2023-03-29T22:15:59.071Z,26.35
2023-03-29T22:18:42.163Z,26.00
2023-03-29T22:21:15.223Z,24.70
2023-03-29T22:23:44.444Z,22.48
2023-03-29T22:26:13.264Z,24.58
2023-03-29T22:28:41.754Z,22.23
2023-03-29T22:31:11.716Z,18.30
2023-03-29T22:33:40.243Z,21.20
2023-03-29T22:36:23.837Z,20.27
2023-03-29T22:38:51.592Z,20.27
2023-03-29T22:41:20.285Z,20.90
2023-03-29T22:43:47.631Z,18.65
2023-03-29T22:46:16.248Z,19.90
2023-03-29T22:48:43.750Z,20.90
2023-03-29T22:51:11.460Z,20.48
2023-03-29T22:53:39.188Z,20.50
2023-03-29T22:56:07.820Z,19.83
2023-03-29T22:58:36.884Z,21.38
2023-03-29T23:01:04.820Z,23.42
2023-03-29T23:03:32.974Z,21.70
2023-03-29T23:06:03.367Z,20.35
2023-03-29T23:08:32.571Z,21.35
2023-03-29T23:11:00.608Z,21.23
2023-03-29T23:13:29.397Z,19.27
2023-03-29T23:15:59.923Z,21.30
2023-03-29T23:18:29.626Z,21.08
2023-03-29T23:20:57.964Z,21.77
2023-03-29T23:23:27.056Z,20.52
2023-03-29T23:25:55.783Z,22.33
2023-03-29T23:28:27.345Z,25.70
2023-03-29T23:31:09.857Z,22.35
2023-03-29T23:33:41.131Z,21.23
2023-03-29T23:36:16.976Z,25.50
2023-03-29T23:38:46.129Z,26.73
2023-03-29T23:41:13.724Z,22.48
2023-03-29T23:43:43.281Z,24.60
2023-03-29T23:46:16.063Z,22.60
2023-03-29T23:48:49.095Z,24.00
2023-03-29T23:51:28.826Z,24.38
2023-03-29T23:53:56.897Z,24.85
2023-03-29T23:56:24.363Z,26.70
2023-03-29T23:58:51.922Z,24.23
